Lumberton, New Mexico
Current Conditions -  °F | °C
As of 8:53 AM on Saturday 22 Nov 2014 (Local Time) from KDRO Reporting Station
Clear Clear  
Wind Chill: 31°   Ceiling: Unl
Heat Index: 31°   Visibility: 10mi
Dew Point: 21°   Wind: 3mph
Humidity: 67%   Direction: 90°E
Pressure: 30.13"   Gusts: NA
Location:  36.6026°N, 107.231°W
Report Text: KDRO 221553Z AUTO 09003KT 10SM CLR M01/M06 A3013 RMK AO2 SLP228 T10061061
Loading
Personal Weather Stations






























Interactive Weather Map New forecast layout! Learn more

10-Day Weather Forecast

Advertisements
Track Severe Weather on mobile